Time;durP1;ratioP1;P1;durP2;ratioP2;P2;SDS_P1;SDS_P2;PMS_P1;PMS_P2;Temp;Humidity;BMP_temperature;BMP_pressure;BME280_temperature;BME280_humidity;BME280_pressure;Samples;Min_cycle;Max_cycle;Signal;HPM_P1;HPM_P2
2023/08/19 00:01:18;;;;;;;18.27;15.57;;;18.40;1.00;;;;;;5053793;28;20525;-70
2023/08/19 00:03:44;;;;;;;22.13;14.80;;;18.40;1.00;;;;;;5051927;28;20202;-70
2023/08/19 00:06:12;;;;;;;22.87;16.70;;;18.40;1.00;;;;;;5073347;28;20396;-69
2023/08/19 00:08:38;;;;;;;18.80;15.00;;;18.30;1.00;;;;;;5065341;28;20291;-67
2023/08/19 00:11:05;;;;;;;19.53;15.70;;;18.40;1.00;;;;;;5053504;28;20456;-69
2023/08/19 00:13:31;;;;;;;22.70;14.83;;;18.30;1.00;;;;;;5054147;28;20480;-67
2023/08/19 00:15:57;;;;;;;20.17;15.47;;;18.40;1.00;;;;;;5051444;28;21042;-67
2023/08/19 00:18:23;;;;;;;20.47;14.27;;;18.40;1.00;;;;;;5053921;28;20456;-70
2023/08/19 00:20:51;;;;;;;19.90;15.63;;;18.30;1.00;;;;;;5068332;28;20435;-68
2023/08/19 00:23:17;;;;;;;20.00;15.13;;;18.20;1.00;;;;;;5073000;28;20197;-67
2023/08/19 00:25:43;;;;;;;20.50;14.07;;;18.20;1.00;;;;;;5055764;28;20778;-69
2023/08/19 00:28:09;;;;;;;22.93;14.40;;;18.30;1.00;;;;;;5053946;28;20583;-68
2023/08/19 00:30:35;;;;;;;16.70;14.20;;;18.30;1.00;;;;;;5053805;28;20405;-67
2023/08/19 00:33:01;;;;;;;24.80;15.63;;;18.30;1.00;;;;;;5053739;28;20874;-69
2023/08/19 00:35:26;;;;;;;24.90;15.57;;;18.20;1.00;;;;;;5066393;28;20181;-67
2023/08/19 00:37:52;;;;;;;19.47;13.40;;;18.20;1.00;;;;;;5073384;28;20263;-67
2023/08/19 00:40:18;;;;;;;25.63;14.70;;;18.30;1.00;;;;;;5073286;28;20768;-67
2023/08/19 00:42:43;;;;;;;19.60;16.23;;;18.30;1.00;;;;;;5073076;28;20202;-67
2023/08/19 00:45:10;;;;;;;18.30;14.53;;;18.20;1.00;;;;;;5071651;28;20180;-69
2023/08/19 00:47:37;;;;;;;23.00;15.73;;;18.20;1.00;;;;;;5073351;28;20182;-67
2023/08/19 00:50:10;;;;;;;24.93;15.30;;;18.20;1.00;;;;;;5071808;28;20920;-68
2023/08/19 00:52:38;;;;;;;22.10;17.00;;;18.20;1.00;;;;;;5073242;28;20413;-68
2023/08/19 00:55:05;;;;;;;22.40;16.73;;;18.20;1.00;;;;;;5061158;28;20495;-74
2023/08/19 00:57:34;;;;;;;23.73;16.57;;;18.20;1.00;;;;;;5053010;28;20459;-67
2023/08/19 01:00:00;;;;;;;29.00;16.87;;;18.20;1.00;;;;;;5052734;28;20401;-67
2023/08/19 01:02:27;;;;;;;20.50;15.60;;;18.20;1.00;;;;;;5053155;28;21010;-67
2023/08/19 01:04:53;;;;;;;22.63;17.30;;;18.20;1.00;;;;;;5060267;28;20421;-67
2023/08/19 01:07:48;;;;;;;21.60;15.93;;;18.20;1.00;;;;;;5072262;28;20512;-67
2023/08/19 01:11:02;;;;;;;21.53;16.57;;;18.20;1.00;;;;;;5073239;28;20446;-67
2023/08/19 01:13:39;;;;;;;24.83;16.47;;;18.20;1.00;;;;;;5069315;28;20419;-67
2023/08/19 01:16:14;;;;;;;21.90;16.50;;;18.20;1.00;;;;;;5051588;28;20420;-67
2023/08/19 01:18:40;;;;;;;20.20;15.80;;;18.20;1.00;;;;;;5052864;28;20928;-67
2023/08/19 01:21:07;;;;;;;20.47;15.10;;;18.30;1.00;;;;;;5055179;28;20433;-73
2023/08/19 01:23:37;;;;;;;23.07;16.83;;;18.20;1.00;;;;;;5051879;28;20453;-69
2023/08/19 01:26:03;;;;;;;22.17;15.07;;;18.30;1.00;;;;;;5052022;28;20405;-67
2023/08/19 01:28:29;;;;;;;18.20;14.80;;;18.30;1.00;;;;;;5052425;28;20471;-69
2023/08/19 01:30:54;;;;;;;18.90;14.73;;;18.30;1.00;;;;;;5053044;28;20506;-68
2023/08/19 01:33:21;;;;;;;21.40;15.50;;;18.30;1.00;;;;;;5052220;28;20167;-67
2023/08/19 01:36:01;;;;;;;21.17;14.77;;;18.30;1.00;;;;;;5050040;28;20229;-68
2023/08/19 01:38:48;;;;;;;19.40;14.90;;;18.40;1.00;;;;;;5052645;28;21011;-68
2023/08/19 01:41:15;;;;;;;20.83;13.43;;;18.30;1.00;;;;;;5072787;28;20408;-69
2023/08/19 01:43:42;;;;;;;19.30;15.30;;;18.30;1.00;;;;;;5070213;28;20509;-69
2023/08/19 01:46:09;;;;;;;20.80;14.77;;;18.30;1.00;;;;;;5051811;28;20886;-67
2023/08/19 01:48:35;;;;;;;20.73;16.07;;;18.30;1.00;;;;;;5052893;28;20781;-67
2023/08/19 01:51:00;;;;;;;18.47;13.43;;;18.30;1.00;;;;;;5070976;28;20404;-70
2023/08/19 01:53:26;;;;;;;20.63;15.60;;;18.30;1.00;;;;;;5072619;28;20523;-67
2023/08/19 01:55:52;;;;;;;17.23;13.70;;;18.30;1.00;;;;;;5071576;28;20170;-67
2023/08/19 01:58:17;;;;;;;17.23;13.20;;;18.40;1.00;;;;;;5071860;28;20209;-70
2023/08/19 02:00:44;;;;;;;18.27;15.23;;;18.40;1.00;;;;;;5065572;28;20636;-68
2023/08/19 02:03:10;;;;;;;16.73;13.97;;;18.30;1.00;;;;;;5052318;28;20224;-67
2023/08/19 02:05:36;;;;;;;24.07;15.33;;;18.30;1.00;;;;;;5066850;28;20431;-67
2023/08/19 02:08:01;;;;;;;17.70;14.43;;;18.30;1.00;;;;;;5072054;28;20187;-70
2023/08/19 02:10:27;;;;;;;18.00;15.10;;;18.40;1.00;;;;;;5072139;28;20167;-69
2023/08/19 02:12:53;;;;;;;18.83;14.33;;;18.30;1.00;;;;;;5072528;28;20166;-68
2023/08/19 02:15:18;;;;;;;17.97;13.60;;;18.30;1.00;;;;;;5057009;28;20257;-66
2023/08/19 02:17:44;;;;;;;19.90;15.77;;;18.30;1.00;;;;;;5052161;28;20197;-69
2023/08/19 02:20:10;;;;;;;20.43;13.97;;;18.30;1.00;;;;;;5061691;28;20185;-67
2023/08/19 02:22:38;;;;;;;16.43;14.50;;;18.30;1.00;;;;;;5056928;28;20218;-67
2023/08/19 02:25:04;;;;;;;17.77;15.23;;;18.40;1.00;;;;;;5051384;28;20406;-70
2023/08/19 02:27:31;;;;;;;20.07;15.30;;;18.40;1.00;;;;;;5050587;28;20817;-69
2023/08/19 02:29:58;;;;;;;18.07;13.70;;;18.30;1.00;;;;;;5057881;28;20435;-69
2023/08/19 02:32:24;;;;;;;19.33;14.60;;;18.30;1.00;;;;;;5053363;28;20433;-70
2023/08/19 02:34:49;;;;;;;19.53;13.83;;;18.30;1.00;;;;;;5058852;28;20435;-71
2023/08/19 02:37:15;;;;;;;19.77;15.03;;;18.40;1.00;;;;;;5075101;28;20197;-67
2023/08/19 02:39:41;;;;;;;17.07;13.77;;;18.40;1.00;;;;;;5071290;28;20177;-69
2023/08/19 02:42:06;;;;;;;17.20;13.27;;;18.40;1.00;;;;;;5055699;28;20594;-67
2023/08/19 02:44:32;;;;;;;16.40;13.87;;;18.40;1.00;;;;;;5055680;28;20246;-68
2023/08/19 02:46:58;;;;;;;16.50;13.93;;;18.40;1.00;;;;;;5054574;28;20163;-67
2023/08/19 02:49:23;;;;;;;16.53;13.40;;;18.40;1.00;;;;;;5055340;28;20202;-68
2023/08/19 02:51:49;;;;;;;17.47;14.47;;;18.40;1.00;;;;;;5075693;28;20212;-67
2023/08/19 02:54:15;;;;;;;18.93;13.90;;;18.40;1.00;;;;;;5075502;28;20217;-68
2023/08/19 02:56:40;;;;;;;15.83;13.80;;;18.50;1.00;;;;;;5074689;28;20173;-67
2023/08/19 02:59:06;;;;;;;19.90;15.10;;;18.50;1.00;;;;;;5075469;28;20586;-69
2023/08/19 03:01:32;;;;;;;18.77;14.97;;;18.50;1.00;;;;;;5073943;28;20220;-67
2023/08/19 03:03:57;;;;;;;18.87;15.83;;;18.40;1.00;;;;;;5075356;28;20202;-67
2023/08/19 03:06:23;;;;;;;19.80;14.33;;;18.40;1.00;;;;;;5072961;28;20182;-69
2023/08/19 03:08:49;;;;;;;19.40;13.47;;;18.40;1.00;;;;;;5074813;28;20247;-67
2023/08/19 03:11:14;;;;;;;19.60;15.40;;;18.40;1.00;;;;;;5074386;28;20695;-67
2023/08/19 03:13:40;;;;;;;17.90;14.03;;;18.50;1.00;;;;;;5075342;28;20181;-67
2023/08/19 03:16:06;;;;;;;17.57;14.20;;;18.50;1.00;;;;;;5074290;28;20177;-67
2023/08/19 03:18:31;;;;;;;24.57;14.40;;;18.50;1.00;;;;;;5074976;28;20273;-69
2023/08/19 03:20:58;;;;;;;20.10;15.80;;;18.50;1.00;;;;;;5065228;28;20210;-67
2023/08/19 03:23:27;;;;;;;19.50;14.67;;;18.50;1.00;;;;;;5063578;28;20665;-67
2023/08/19 03:25:54;;;;;;;19.67;14.23;;;18.40;1.00;;;;;;5069606;28;20427;-69
2023/08/19 03:28:20;;;;;;;16.90;13.40;;;18.50;1.00;;;;;;5074383;28;20416;-69
2023/08/19 03:30:46;;;;;;;22.47;16.83;;;18.40;1.00;;;;;;5074756;28;20442;-66
2023/08/19 03:33:12;;;;;;;18.93;15.17;;;18.40;1.00;;;;;;5074009;28;20185;-66
2023/08/19 03:35:37;;;;;;;23.97;15.40;;;18.50;1.00;;;;;;5072299;28;20206;-67
2023/08/19 03:38:03;;;;;;;17.23;14.30;;;18.50;1.00;;;;;;5074646;28;20214;-67
2023/08/19 03:40:29;;;;;;;17.80;14.90;;;18.50;1.00;;;;;;5074704;28;20167;-67
2023/08/19 03:42:55;;;;;;;19.30;15.37;;;18.40;1.00;;;;;;5073508;28;20198;-69
2023/08/19 03:45:20;;;;;;;20.70;16.03;;;18.40;1.00;;;;;;5071535;28;20170;-66
2023/08/19 03:47:46;;;;;;;20.67;15.67;;;18.40;1.00;;;;;;5074145;28;20182;-67
2023/08/19 03:50:12;;;;;;;19.83;15.37;;;18.40;1.00;;;;;;5073100;28;20302;-67
2023/08/19 03:52:38;;;;;;;18.90;15.47;;;18.40;1.00;;;;;;5074393;28;20197;-68
2023/08/19 03:55:05;;;;;;;18.20;14.47;;;18.40;1.00;;;;;;5073408;28;20200;-72
2023/08/19 03:57:30;;;;;;;25.20;16.23;;;18.40;1.00;;;;;;5074502;28;20475;-67
2023/08/19 03:59:56;;;;;;;19.07;15.10;;;18.40;1.00;;;;;;5059398;28;21241;-67
2023/08/19 04:02:22;;;;;;;26.33;17.03;;;18.40;1.00;;;;;;5054254;28;20213;-68
2023/08/19 04:04:59;;;;;;;29.33;17.50;;;18.40;1.00;;;;;;5053572;28;20195;-69
2023/08/19 04:07:24;;;;;;;18.90;15.20;;;18.40;1.00;;;;;;5070434;28;20284;-67
2023/08/19 04:09:50;;;;;;;19.57;15.43;;;18.50;1.00;;;;;;5074129;28;20758;-67
2023/08/19 04:12:16;;;;;;;21.90;15.93;;;18.40;1.00;;;;;;5074028;28;20170;-67
2023/08/19 04:14:44;;;;;;;23.77;16.40;;;18.40;1.00;;;;;;5073975;28;20169;-68
2023/08/19 04:17:10;;;;;;;19.17;16.07;;;18.40;1.00;;;;;;5055643;28;20202;-67
2023/08/19 04:19:36;;;;;;;20.63;16.77;;;18.50;1.00;;;;;;5054046;28;20412;-67
2023/08/19 04:22:02;;;;;;;20.30;15.20;;;18.60;1.00;;;;;;5059976;28;20198;-69
2023/08/19 04:24:28;;;;;;;19.53;15.77;;;18.50;1.00;;;;;;5059503;28;20459;-69
2023/08/19 04:26:54;;;;;;;21.27;16.00;;;18.60;1.00;;;;;;5070223;28;20178;-68
2023/08/19 04:29:19;;;;;;;20.77;16.40;;;18.60;1.00;;;;;;5073745;28;20622;-67
2023/08/19 04:31:45;;;;;;;20.33;15.40;;;18.60;1.00;;;;;;5073846;28;20397;-69
2023/08/19 04:34:11;;;;;;;19.70;15.57;;;18.60;1.00;;;;;;5072491;28;20630;-67
2023/08/19 04:36:37;;;;;;;20.00;14.27;;;18.60;1.00;;;;;;5071283;28;20478;-67
2023/08/19 04:39:07;;;;;;;23.10;15.10;;;18.60;1.00;;;;;;5057642;28;20206;-69
2023/08/19 04:41:33;;;;;;;20.60;14.90;;;18.60;1.00;;;;;;5052972;28;20253;-69
2023/08/19 04:43:59;;;;;;;22.77;15.67;;;18.70;1.00;;;;;;5068977;28;20534;-67
2023/08/19 04:46:24;;;;;;;21.37;15.77;;;18.70;1.00;;;;;;5072726;28;20408;-69
2023/08/19 04:48:50;;;;;;;19.10;15.30;;;18.60;1.00;;;;;;5073452;28;20178;-66
2023/08/19 04:51:16;;;;;;;22.67;15.67;;;18.70;1.00;;;;;;5071728;28;20185;-67
2023/08/19 04:53:41;;;;;;;24.83;17.27;;;18.70;1.00;;;;;;5071103;28;20613;-68
2023/08/19 04:56:07;;;;;;;22.80;16.37;;;18.70;1.00;;;;;;5054212;28;20183;-68
2023/08/19 04:58:34;;;;;;;25.33;17.70;;;18.70;1.00;;;;;;5052615;28;20186;-68
2023/08/19 05:01:00;;;;;;;19.23;15.73;;;18.70;1.00;;;;;;5053502;28;20182;-67
2023/08/19 05:03:26;;;;;;;24.93;18.27;;;18.80;1.00;;;;;;5053040;28;20449;-67
2023/08/19 05:05:51;;;;;;;24.63;15.17;;;18.80;1.00;;;;;;5069201;28;20546;-67
2023/08/19 05:08:17;;;;;;;21.33;16.63;;;18.80;1.00;;;;;;5071593;28;20205;-67
2023/08/19 05:10:43;;;;;;;23.87;17.20;;;18.80;1.00;;;;;;5072999;28;20166;-67
2023/08/19 05:13:09;;;;;;;19.53;15.63;;;18.80;1.00;;;;;;5073086;28;20170;-68
2023/08/19 05:15:35;;;;;;;21.60;17.00;;;18.90;1.00;;;;;;5070725;28;20264;-69
2023/08/19 05:18:01;;;;;;;23.53;16.83;;;18.90;1.00;;;;;;5072492;28;20438;-67
2023/08/19 05:20:27;;;;;;;20.13;15.80;;;19.00;1.00;;;;;;5072980;28;20401;-69
2023/08/19 05:22:53;;;;;;;21.43;17.27;;;19.00;1.00;;;;;;5062342;28;20456;-67
2023/08/19 05:25:18;;;;;;;24.77;17.40;;;19.00;1.00;;;;;;5054074;28;20365;-70
2023/08/19 05:27:44;;;;;;;21.07;16.70;;;19.00;1.00;;;;;;5052980;28;20734;-68
2023/08/19 05:30:10;;;;;;;25.60;17.60;;;19.00;1.00;;;;;;5053044;28;20510;-67
2023/08/19 05:32:36;;;;;;;21.37;17.63;;;19.10;1.00;;;;;;5051048;28;20217;-70
2023/08/19 05:35:02;;;;;;;19.97;16.93;;;19.10;1.00;;;;;;5051799;28;20441;-71
2023/08/19 05:37:28;;;;;;;23.47;17.07;;;19.10;1.00;;;;;;5058702;28;20189;-68
2023/08/19 05:39:53;;;;;;;21.23;17.60;;;19.20;1.00;;;;;;5055826;28;20436;-67
2023/08/19 05:42:19;;;;;;;23.93;18.20;;;19.20;1.00;;;;;;5072512;28;20654;-67
2023/08/19 05:44:45;;;;;;;26.70;17.50;;;19.20;1.00;;;;;;5072719;28;20163;-67
2023/08/19 05:47:10;;;;;;;23.60;16.40;;;19.20;1.00;;;;;;5071788;28;20639;-68
2023/08/19 05:49:36;;;;;;;23.77;18.60;;;19.30;1.00;;;;;;5072178;28;20170;-68
2023/08/19 05:52:02;;;;;;;22.30;17.83;;;19.30;1.00;;;;;;5070272;28;20543;-67
2023/08/19 05:54:28;;;;;;;19.93;17.83;;;19.40;1.00;;;;;;5052521;28;20195;-67
2023/08/19 05:56:53;;;;;;;25.83;18.53;;;19.40;1.00;;;;;;5051784;28;20390;-67
2023/08/19 05:59:19;;;;;;;24.60;18.03;;;19.50;1.00;;;;;;5052030;28;20186;-67
2023/08/19 06:01:45;;;;;;;25.20;17.77;;;19.50;1.00;;;;;;5052384;28;20163;-68
2023/08/19 06:04:10;;;;;;;21.80;18.17;;;19.50;1.00;;;;;;5052593;28;20528;-66
2023/08/19 06:06:36;;;;;;;24.43;17.93;;;19.50;1.00;;;;;;5050386;28;20171;-66
2023/08/19 06:09:02;;;;;;;24.07;18.63;;;19.50;1.00;;;;;;5053052;28;20213;-66
2023/08/19 06:11:28;;;;;;;18.97;16.93;;;19.60;1.00;;;;;;5054568;28;20175;-65
2023/08/19 06:13:53;;;;;;;19.13;15.47;;;19.60;1.00;;;;;;5056245;28;20167;-66
2023/08/19 06:16:19;;;;;;;20.80;18.23;;;19.70;1.00;;;;;;5055586;28;20624;-65
2023/08/19 06:18:45;;;;;;;27.87;18.47;;;19.70;1.00;;;;;;5055795;28;20675;-66
2023/08/19 06:21:12;;;;;;;23.67;19.13;;;19.80;1.00;;;;;;5056270;28;20163;-68
2023/08/19 06:23:38;;;;;;;25.33;18.87;;;19.80;1.00;;;;;;5058643;28;20459;-66
2023/08/19 06:26:04;;;;;;;21.80;18.00;;;19.80;1.00;;;;;;5054640;28;20413;-66
2023/08/19 06:28:29;;;;;;;21.20;17.43;;;19.90;1.00;;;;;;5055214;28;20478;-73
2023/08/19 06:30:56;;;;;;;22.07;17.70;;;19.90;1.00;;;;;;5074948;28;20623;-65
2023/08/19 06:33:23;;;;;;;22.80;17.43;;;19.90;1.00;;;;;;5076082;28;20181;-65
2023/08/19 06:35:49;;;;;;;20.13;17.87;;;20.00;1.00;;;;;;5073906;28;20444;-66
2023/08/19 06:38:20;;;;;;;19.33;16.70;;;20.10;1.00;;;;;;5074202;28;20440;-66
2023/08/19 06:41:07;;;;;;;21.30;17.17;;;20.20;1.00;;;;;;5074610;28;20404;-66
2023/08/19 06:43:34;;;;;;;19.77;16.50;;;20.20;1.00;;;;;;5075306;28;20809;-65
2023/08/19 06:46:01;;;;;;;19.90;17.70;;;20.30;1.00;;;;;;5074793;28;20474;-66
2023/08/19 06:48:28;;;;;;;18.03;16.13;;;20.30;1.00;;;;;;5073887;28;20448;-67
2023/08/19 06:50:54;;;;;;;19.60;15.93;;;20.30;1.00;;;;;;5075800;28;20397;-66
2023/08/19 06:53:21;;;;;;;19.60;16.50;;;20.40;1.00;;;;;;5070602;28;22098;-66
2023/08/19 06:56:05;;;;;;;19.23;15.03;;;20.40;1.00;;;;;;5054639;28;20400;-66
2023/08/19 06:58:36;;;;;;;16.03;13.60;;;20.40;1.00;;;;;;5062743;28;20502;-66
2023/08/19 07:01:07;;;;;;;15.73;14.13;;;20.50;1.00;;;;;;5068941;28;20432;-69
2023/08/19 07:03:34;;;;;;;16.00;14.30;;;20.50;1.00;;;;;;5055462;28;20805;-66
2023/08/19 07:06:01;;;;;;;20.13;15.50;;;20.50;1.00;;;;;;5054481;28;20797;-66
2023/08/19 07:08:30;;;;;;;17.77;14.73;;;20.50;1.00;;;;;;5056971;28;20540;-67
2023/08/19 07:11:00;;;;;;;15.57;13.97;;;20.60;1.00;;;;;;5075436;28;20405;-66
2023/08/19 07:13:27;;;;;;;15.80;14.20;;;20.70;1.00;;;;;;5075282;28;20964;-67
2023/08/19 07:16:01;;;;;;;15.47;13.97;;;20.70;1.00;;;;;;5074323;28;20404;-66
2023/08/19 07:18:30;;;;;;;17.60;15.70;;;20.80;1.00;;;;;;5073844;28;20501;-69
2023/08/19 07:20:57;;;;;;;18.77;14.47;;;20.80;1.00;;;;;;5065460;28;20434;-69
2023/08/19 07:23:25;;;;;;;14.37;12.97;;;20.90;1.00;;;;;;5054504;28;20445;-69
2023/08/19 07:25:51;;;;;;;17.77;15.80;;;21.00;1.00;;;;;;5054002;28;20430;-68
2023/08/19 07:28:19;;;;;;;16.10;14.20;;;21.10;1.00;;;;;;5055411;28;21080;-70
2023/08/19 07:30:45;;;;;;;16.57;12.20;;;21.10;1.00;;;;;;5073684;28;20839;-68
2023/08/19 07:33:11;;;;;;;15.27;13.63;;;21.20;1.00;;;;;;5075032;28;20492;-68
2023/08/19 07:35:41;;;;;;;14.00;12.80;;;21.20;1.00;;;;;;5073994;28;20396;-68
2023/08/19 07:38:07;;;;;;;16.53;13.27;;;21.20;1.00;;;;;;5073068;28;20198;-74
2023/08/19 07:40:33;;;;;;;14.57;13.20;;;21.30;1.00;;;;;;5052628;28;20436;-67
2023/08/19 07:42:58;;;;;;;15.20;12.53;;;21.40;1.00;;;;;;5054748;28;20610;-67
2023/08/19 07:45:24;;;;;;;15.13;12.90;;;21.50;1.00;;;;;;5053836;28;20424;-67
2023/08/19 07:47:50;;;;;;;14.77;13.17;;;21.50;1.00;;;;;;5054511;28;20183;-68
2023/08/19 07:50:15;;;;;;;14.60;13.20;;;21.60;1.00;;;;;;5070122;28;20174;-67
2023/08/19 07:52:41;;;;;;;16.07;13.63;;;21.70;99.90;;;;;;5074420;28;20562;-68
2023/08/19 07:55:07;;;;;;;14.03;12.63;;;21.80;99.90;;;;;;5057704;28;20189;-69
2023/08/19 07:57:33;;;;;;;15.10;13.70;;;21.80;99.90;;;;;;5052806;28;20213;-67
2023/08/19 07:59:58;;;;;;;14.40;13.00;;;21.90;99.90;;;;;;5067353;28;20932;-68
2023/08/19 08:02:24;;;;;;;20.63;13.43;;;21.90;99.90;;;;;;5074224;28;20273;-69
2023/08/19 08:04:50;;;;;;;15.27;13.67;;;21.90;99.90;;;;;;5074151;28;20171;-68
2023/08/19 08:07:16;;;;;;;14.50;13.20;;;22.00;99.90;;;;;;5073489;28;20535;-68
2023/08/19 08:09:45;;;;;;;15.00;13.60;;;22.10;99.90;;;;;;5062965;28;20174;-68
2023/08/19 08:12:11;;;;;;;14.60;13.07;;;22.20;99.90;;;;;;5053768;28;20583;-69
2023/08/19 08:14:37;;;;;;;14.77;13.30;;;22.30;99.90;;;;;;5053834;28;20512;-71
2023/08/19 08:17:02;;;;;;;16.00;12.87;;;22.40;99.90;;;;;;5052840;28;20524;-70
2023/08/19 08:19:28;;;;;;;14.80;13.30;;;22.50;99.90;;;;;;5053679;28;20199;-68
2023/08/19 08:21:54;;;;;;;14.20;13.00;;;22.50;99.90;;;;;;5053916;28;20205;-67
2023/08/19 08:24:21;;;;;;;13.93;12.60;;;22.60;99.90;;;;;;5053825;28;20197;-68
2023/08/19 08:26:47;;;;;;;16.77;13.90;;;22.70;99.90;;;;;;5052291;28;20619;-68
2023/08/19 08:29:13;;;;;;;16.17;14.23;;;22.80;99.90;;;;;;5053780;28;20452;-67
2023/08/19 08:31:39;;;;;;;14.40;13.10;;;22.90;99.90;;;;;;5053088;28;20171;-68
2023/08/19 08:34:05;;;;;;;18.40;13.93;;;23.00;99.90;;;;;;5053590;28;20179;-68
2023/08/19 08:36:30;;;;;;;15.43;13.90;;;23.10;99.90;;;;;;5052751;28;20635;-67
2023/08/19 08:38:56;;;;;;;18.00;13.93;;;23.30;99.90;;;;;;5052518;28;20488;-69
2023/08/19 08:41:22;;;;;;;15.50;13.87;;;23.40;99.90;;;;;;5053532;28;20178;-68
2023/08/19 08:43:49;;;;;;;14.97;13.17;;;23.60;99.90;;;;;;5052962;28;20198;-68
2023/08/19 08:46:16;;;;;;;16.37;14.60;;;23.70;99.90;;;;;;5052696;28;20432;-67
2023/08/19 08:48:43;;;;;;;30.10;15.27;;;23.90;96.90;;;;;;5053401;28;20421;-68
2023/08/19 08:51:09;;;;;;;18.23;14.43;;;24.10;36.90;;;;;;5055212;28;20503;-69
2023/08/19 08:53:36;;;;;;;14.53;13.23;;;24.20;1.00;;;;;;5053586;28;20539;-68
2023/08/19 08:56:03;;;;;;;16.95;14.50;;;24.20;1.00;;;;;;5052548;28;20415;-68
2023/08/19 08:58:28;;;;;;;15.57;13.97;;;24.10;1.00;;;;;;5069391;28;20562;-69
2023/08/19 09:00:54;;;;;;;17.53;14.40;;;24.20;1.00;;;;;;5052964;28;20421;-68
2023/08/19 09:03:25;;;;;;;15.93;14.33;;;24.20;1.00;;;;;;5052993;28;20190;-70
2023/08/19 09:05:56;;;;;;;15.47;14.07;;;24.20;1.00;;;;;;5052257;28;20433;-70
2023/08/19 09:08:30;;;;;;;16.40;14.67;;;24.10;1.00;;;;;;5034810;28;20445;-70
2023/08/19 09:11:00;;;;;;;14.77;13.37;;;24.10;1.00;;;;;;5053113;28;20409;-70
2023/08/19 09:13:27;;;;;;;16.13;14.43;;;24.20;1.00;;;;;;5053108;28;20412;-67
2023/08/19 09:15:54;;;;;;;15.53;14.13;;;24.20;1.00;;;;;;5052193;28;20484;-69
2023/08/19 09:18:20;;;;;;;16.47;14.80;;;24.10;1.00;;;;;;5054506;28;20444;-70
2023/08/19 09:20:47;;;;;;;15.07;13.67;;;24.10;1.00;;;;;;5060027;28;20471;-69
2023/08/19 09:23:12;;;;;;;15.20;13.70;;;24.20;1.00;;;;;;5050964;28;20518;-75
2023/08/19 09:25:39;;;;;;;15.23;13.83;;;24.20;1.00;;;;;;5071640;28;20796;-68
2023/08/19 09:28:06;;;;;;;16.47;14.40;;;24.30;1.00;;;;;;5071650;28;20182;-69
2023/08/19 09:30:35;;;;;;;15.63;14.00;;;24.40;1.00;;;;;;5071988;28;20455;-67
2023/08/19 09:33:01;;;;;;;15.37;13.87;;;24.50;1.00;;;;;;5071604;28;20769;-69
2023/08/19 09:35:39;;;;;;;17.23;13.30;;;24.50;1.00;;;;;;5070597;28;20408;-69
2023/08/19 09:38:04;;;;;;;15.53;13.93;;;24.70;1.00;;;;;;5064328;28;20445;-68
2023/08/19 09:40:31;;;;;;;14.33;12.93;;;25.10;1.00;;;;;;5052328;28;20521;-68
2023/08/19 09:42:59;;;;;;;14.23;12.83;;;25.40;1.00;;;;;;5062267;28;20194;-69
2023/08/19 09:45:27;;;;;;;14.03;12.53;;;25.80;1.00;;;;;;5074341;28;20392;-68
2023/08/19 09:47:54;;;;;;;14.57;12.60;;;26.10;99.90;;;;;;5076699;28;21151;-69
2023/08/19 09:50:22;;;;;;;14.60;13.30;;;26.50;99.90;;;;;;5076926;28;20400;-69
2023/08/19 09:52:55;;;;;;;13.93;12.60;;;26.70;99.90;;;;;;5075107;28;20420;-69
2023/08/19 09:55:25;;;;;;;13.10;11.90;;;26.90;99.90;;;;;;5058137;28;20731;-70
2023/08/19 09:57:52;;;;;;;14.73;11.93;;;27.10;99.90;;;;;;5075401;28;20424;-70
2023/08/19 10:00:18;;;;;;;13.77;12.43;;;27.30;99.90;;;;;;5076623;28;20388;-68
2023/08/19 10:02:44;;;;;;;15.10;11.77;;;27.60;99.90;;;;;;5075238;28;20498;-69
2023/08/19 10:05:10;;;;;;;12.77;11.67;;;27.70;99.90;;;;;;5075840;28;20828;-69
2023/08/19 10:07:38;;;;;;;13.20;11.90;;;27.80;99.90;;;;;;5073915;28;20670;-71
2023/08/19 10:10:05;;;;;;;12.93;11.70;;;28.20;99.90;;;;;;5062780;28;20765;-69
2023/08/19 10:12:38;;;;;;;11.80;10.60;;;28.40;99.90;;;;;;5056036;28;20474;-68
2023/08/19 10:15:07;;;;;;;12.17;10.83;;;28.40;99.90;;;;;;5055321;28;20416;-69
2023/08/19 10:17:36;;;;;;;13.60;12.33;;;28.30;99.90;;;;;;5055227;28;20506;-68
2023/08/19 10:20:11;;;;;;;12.10;11.10;;;28.20;99.90;;;;;;5069175;28;20443;-68
2023/08/19 10:22:41;;;;;;;11.10;10.10;;;28.30;99.90;;;;;;5056682;28;20854;-69
2023/08/19 10:25:13;;;;;;;13.20;11.90;;;28.50;99.90;;;;;;5074986;28;20400;-69
2023/08/19 10:27:42;;;;;;;11.77;10.77;;;28.70;99.90;;;;;;5076095;28;20420;-68
2023/08/19 10:30:22;;;;;;;11.70;10.23;;;28.80;99.90;;;;;;5076056;28;20397;-68
2023/08/19 10:32:48;;;;;;;17.07;11.60;;;29.00;99.90;;;;;;5055770;28;20444;-70
2023/08/19 10:35:15;;;;;;;11.70;10.70;;;29.30;99.90;;;;;;5055107;28;20889;-68
2023/08/19 10:37:50;;;;;;;12.23;11.05;;;29.60;99.90;;;;;;5054879;28;20404;-71
2023/08/19 10:40:33;;;;;;;11.67;10.73;;;29.60;98.90;;;;;;5055687;28;20174;-68
2023/08/19 10:43:00;;;;;;;11.37;10.37;;;29.70;98.90;;;;;;5055262;28;20953;-69
2023/08/19 10:45:33;;;;;;;11.60;10.70;;;29.70;76.30;;;;;;5053620;28;20520;-68
2023/08/19 10:48:00;;;;;;;12.43;11.33;;;29.60;67.80;;;;;;5054631;28;20444;-71
2023/08/19 10:50:26;;;;;;;11.13;10.23;;;29.80;65.60;;;;;;5055092;28;20428;-72
2023/08/19 10:52:58;;;;;;;11.43;10.53;;;29.90;63.60;;;;;;5055193;28;20405;-70
2023/08/19 10:55:24;;;;;;;11.37;10.43;;;30.10;40.00;;;;;;5074556;28;20458;-69
2023/08/19 10:57:50;;;;;;;11.23;10.30;;;30.10;24.90;;;;;;5074489;28;20778;-70
2023/08/19 11:00:21;;;;;;;12.40;11.20;;;30.30;21.70;;;;;;5074926;28;20196;-68
2023/08/19 11:02:46;;;;;;;12.50;10.70;;;30.40;22.40;;;;;;5075324;28;20459;-69
2023/08/19 11:05:12;;;;;;;11.43;10.33;;;30.80;38.30;;;;;;5074540;28;20492;-68
2023/08/19 11:07:41;;;;;;;9.90;9.10;;;31.20;25.50;;;;;;5075513;28;20225;-69
2023/08/19 11:10:07;;;;;;;10.53;9.73;;;31.40;30.30;;;;;;5054262;28;20585;-69
2023/08/19 11:12:33;;;;;;;11.50;10.40;;;31.40;2.50;;;;;;5055249;28;20977;-69
2023/08/19 11:15:00;;;;;;;11.77;10.67;;;31.20;1.00;;;;;;5055080;28;20500;-68
2023/08/19 11:17:33;;;;;;;11.47;10.37;;;31.10;1.00;;;;;;5054524;28;20209;-68
2023/08/19 11:20:09;;;;;;;11.37;10.40;;;31.10;1.00;;;;;;5070164;28;20428;-70
2023/08/19 11:23:01;;;;;;;12.93;11.70;;;31.30;1.00;;;;;;5071204;28;20520;-69
2023/08/19 11:25:38;;;;;;;11.37;10.53;;;31.60;1.00;;;;;;5072260;28;20423;-70
2023/08/19 11:28:04;;;;;;;10.97;10.07;;;31.80;1.00;;;;;;5074696;28;20458;-69
2023/08/19 11:30:31;;;;;;;11.17;10.13;;;32.10;1.00;;;;;;5074427;28;20416;-68
2023/08/19 11:32:57;;;;;;;10.47;9.40;;;32.40;1.00;;;;;;5074285;28;20428;-69
2023/08/19 11:35:26;;;;;;;11.53;10.33;;;32.40;1.00;;;;;;5073469;28;20452;-68
2023/08/19 11:37:52;;;;;;;10.70;9.90;;;32.10;1.00;;;;;;5073196;28;20448;-70
2023/08/19 11:40:18;;;;;;;11.43;10.37;;;32.10;1.00;;;;;;5074698;28;20416;-70
2023/08/19 11:42:43;;;;;;;11.13;10.13;;;32.20;1.00;;;;;;5073737;28;20563;-68
2023/08/19 11:45:10;;;;;;;13.20;11.03;;;32.20;1.00;;;;;;5073873;28;20174;-69
2023/08/19 11:47:36;;;;;;;12.83;11.77;;;32.10;1.00;;;;;;5074662;28;20182;-68
2023/08/19 11:50:06;;;;;;;11.80;10.83;;;31.70;1.00;;;;;;5074650;28;21151;-68
2023/08/19 11:52:33;;;;;;;12.07;11.00;;;31.40;1.00;;;;;;5072676;28;20434;-71
2023/08/19 11:55:04;;;;;;;12.30;11.30;;;31.60;1.00;;;;;;5073595;28;20428;-69
2023/08/19 11:57:37;;;;;;;13.10;11.80;;;31.80;1.00;;;;;;5074647;28;20525;-68
2023/08/19 12:00:05;;;;;;;14.83;11.90;;;31.50;1.00;;;;;;5073433;28;20437;-68
2023/08/19 12:02:31;;;;;;;13.10;11.90;;;31.10;1.00;;;;;;5074175;28;20546;-70
2023/08/19 12:04:57;;;;;;;12.83;11.73;;;30.70;1.00;;;;;;5074115;28;20805;-69
2023/08/19 12:07:29;;;;;;;14.17;12.67;;;30.30;1.00;;;;;;5070049;28;20224;-69
2023/08/19 12:10:02;;;;;;;14.10;12.87;;;29.90;1.00;;;;;;5055474;28;20183;-70
2023/08/19 12:12:31;;;;;;;13.50;11.67;;;29.50;1.00;;;;;;5054267;28;20406;-71
2023/08/19 12:14:58;;;;;;;13.97;11.60;;;29.40;1.00;;;;;;5052211;28;20428;-69
2023/08/19 12:17:23;;;;;;;13.50;12.27;;;29.20;1.00;;;;;;5059124;28;20460;-70
2023/08/19 12:19:49;;;;;;;14.03;12.90;;;29.10;1.00;;;;;;5062661;28;20433;-70
2023/08/19 12:22:16;;;;;;;13.33;12.13;;;29.00;1.00;;;;;;5056039;28;20185;-70
2023/08/19 12:24:42;;;;;;;14.23;12.53;;;28.90;1.00;;;;;;5065743;28;20171;-68
2023/08/19 12:27:08;;;;;;;15.00;13.50;;;28.90;1.00;;;;;;5052819;28;20421;-71
2023/08/19 12:29:35;;;;;;;15.00;13.67;;;28.70;1.00;;;;;;5052405;28;20174;-72
2023/08/19 12:32:01;;;;;;;14.90;13.60;;;28.60;1.00;;;;;;5053311;28;20588;-68
2023/08/19 12:34:27;;;;;;;14.03;12.70;;;28.50;1.00;;;;;;5053594;28;20444;-68
2023/08/19 12:36:54;;;;;;;15.50;13.90;;;28.40;1.00;;;;;;5052666;28;20651;-69